sensor_id;sensor_type;location;lat;lon;timestamp;P1;P4;P2;P0;N10;N4;N25;N1;N05;TS
82002;SPS30;71522;50.870;3.524;2023-07-30T00:01:07;5.00;4.65;3.95;2.95;23.61;23.57;23.40;22.54;18.15;0.66
82002;SPS30;71522;50.870;3.524;2023-07-30T00:03:33;5.36;4.99;4.22;3.13;25.08;25.03;24.84;23.91;19.22;0.67
82002;SPS30;71522;50.870;3.524;2023-07-30T00:06:02;5.72;5.28;4.37;3.12;24.96;24.91;24.69;23.59;18.68;0.70
82002;SPS30;71522;50.870;3.524;2023-07-30T00:08:30;6.56;5.99;4.84;3.28;26.24;26.17;25.89;24.50;19.00;0.73
82002;SPS30;71522;50.870;3.524;2023-07-30T00:10:57;5.77;5.29;4.32;2.98;23.89;23.83;23.60;22.41;17.53;0.70
82002;SPS30;71522;50.870;3.524;2023-07-30T00:13:24;5.30;4.88;4.02;2.84;22.73;22.68;22.47;21.43;16.90;0.70
82002;SPS30;71522;50.870;3.524;2023-07-30T00:15:51;5.73;5.27;4.33;3.04;24.31;24.25;24.03;22.89;18.00;0.69
82002;SPS30;71522;50.870;3.524;2023-07-30T00:18:17;5.56;5.12;4.23;3.00;24.00;23.95;23.73;22.65;17.89;0.71
82002;SPS30;71522;50.870;3.524;2023-07-30T00:20:43;6.09;5.58;4.53;3.11;24.88;24.82;24.57;23.31;18.17;0.73
82002;SPS30;71522;50.870;3.524;2023-07-30T00:23:08;6.09;5.57;4.50;3.06;24.50;24.44;24.18;22.90;17.78;0.73
82002;SPS30;71522;50.870;3.524;2023-07-30T00:25:34;6.31;5.74;4.58;3.02;24.18;24.11;23.83;22.43;17.19;0.76
82002;SPS30;71522;50.870;3.524;2023-07-30T00:28:00;6.12;5.56;4.42;2.89;23.18;23.11;22.84;21.46;16.39;0.75
82002;SPS30;71522;50.870;3.524;2023-07-30T00:30:26;6.04;5.49;4.37;2.88;23.06;22.99;22.73;21.38;16.37;0.74
82002;SPS30;71522;50.870;3.524;2023-07-30T00:32:52;6.22;5.67;4.53;3.01;24.13;24.07;23.79;22.43;17.24;0.73
82002;SPS30;71522;50.870;3.524;2023-07-30T00:35:17;6.20;5.65;4.53;3.03;24.24;24.18;23.91;22.56;17.39;0.73
82002;SPS30;71522;50.870;3.524;2023-07-30T00:37:43;6.65;6.05;4.83;3.20;25.61;25.54;25.25;23.78;18.25;0.73
82002;SPS30;71522;50.870;3.524;2023-07-30T00:40:09;6.91;6.26;4.93;3.16;25.32;25.25;24.93;23.33;17.65;0.76
82002;SPS30;71522;50.870;3.524;2023-07-30T00:42:36;6.67;6.07;4.83;3.17;25.40;25.33;25.03;23.54;18.01;0.76
82002;SPS30;71522;50.870;3.524;2023-07-30T00:45:02;6.23;5.67;4.52;2.98;23.86;23.80;23.52;22.14;16.96;0.76
82002;SPS30;71522;50.870;3.524;2023-07-30T00:47:28;6.72;6.06;4.72;2.96;23.70;23.63;23.31;21.70;16.23;0.78
82002;SPS30;71522;50.870;3.524;2023-07-30T00:49:54;7.29;6.59;5.16;3.27;26.23;26.15;25.81;24.10;18.13;0.77
82002;SPS30;71522;50.870;3.524;2023-07-30T00:52:21;7.36;6.62;5.10;3.11;24.92;24.83;24.47;22.66;16.72;0.81
82002;SPS30;71522;50.870;3.524;2023-07-30T00:54:49;7.42;6.67;5.13;3.12;24.97;24.88;24.51;22.67;16.69;0.81
82002;SPS30;71522;50.870;3.524;2023-07-30T00:57:17;7.66;6.87;5.23;3.11;24.97;24.87;24.48;22.54;16.41;0.83
82002;SPS30;71522;50.870;3.524;2023-07-30T00:59:45;7.12;6.39;4.88;2.92;23.39;23.30;22.94;21.14;15.43;0.81
82002;SPS30;71522;50.870;3.524;2023-07-30T01:02:13;6.58;5.91;4.54;2.75;22.05;21.97;21.65;20.01;14.72;0.81
82002;SPS30;71522;50.870;3.524;2023-07-30T01:04:39;7.06;6.35;4.87;2.95;23.68;23.59;23.24;21.49;15.80;0.80
82002;SPS30;71522;50.870;3.524;2023-07-30T01:07:06;7.33;6.59;5.08;3.11;24.95;24.87;24.51;22.71;16.79;0.78
82002;SPS30;71522;50.870;3.524;2023-07-30T01:09:32;7.13;6.41;4.93;3.00;24.07;23.99;23.63;21.87;16.12;0.78
82002;SPS30;71522;50.870;3.524;2023-07-30T01:11:59;7.34;6.61;5.09;3.12;25.00;24.92;24.55;22.75;16.82;0.77
82002;SPS30;71522;50.870;3.524;2023-07-30T01:14:27;6.75;6.09;4.72;2.93;23.47;23.39;23.06;21.43;15.95;0.77
82002;SPS30;71522;50.870;3.524;2023-07-30T01:16:54;7.18;6.44;4.92;2.95;23.68;23.59;23.23;21.42;15.66;0.79
82002;SPS30;71522;50.870;3.524;2023-07-30T01:19:20;7.84;7.04;5.40;3.27;26.19;26.10;25.71;23.75;17.45;0.78
82002;SPS30;71522;50.870;3.524;2023-07-30T01:21:46;7.45;6.68;5.10;3.05;24.41;24.32;23.94;22.06;16.09;0.82
82002;SPS30;71522;50.870;3.524;2023-07-30T01:24:12;7.77;6.97;5.31;3.17;25.42;25.33;24.93;22.97;16.74;0.83
82002;SPS30;71522;50.870;3.524;2023-07-30T01:26:43;8.22;7.33;5.51;3.17;25.43;25.33;24.90;22.74;16.23;0.86
82002;SPS30;71522;50.870;3.524;2023-07-30T01:29:19;8.27;7.39;5.58;3.24;25.98;25.87;25.44;23.29;16.72;0.85
82002;SPS30;71522;50.870;3.524;2023-07-30T01:31:52;8.14;7.29;5.54;3.27;26.22;26.12;25.70;23.62;17.12;0.81
82002;SPS30;71522;50.870;3.524;2023-07-30T01:34:23;8.23;7.36;5.57;3.26;26.11;26.01;25.58;23.46;16.91;0.80
82002;SPS30;71522;50.870;3.524;2023-07-30T01:36:52;7.24;6.50;4.96;2.97;23.80;23.71;23.34;21.51;15.71;0.80
82002;SPS30;71522;50.870;3.524;2023-07-30T01:39:20;7.88;7.05;5.35;3.14;25.21;25.11;24.71;22.68;16.40;0.82
82002;SPS30;71522;50.870;3.524;2023-07-30T01:41:48;8.43;7.54;5.70;3.33;26.68;26.57;26.13;23.95;17.25;0.83
82002;SPS30;71522;50.870;3.524;2023-07-30T01:44:14;8.54;7.62;5.72;3.28;26.34;26.23;25.78;23.53;16.78;0.84
82002;SPS30;71522;50.870;3.524;2023-07-30T01:46:40;7.84;7.01;5.31;3.11;24.90;24.80;24.40;22.37;16.13;0.82
82002;SPS30;71522;50.870;3.524;2023-07-30T01:49:06;7.79;7.01;5.40;3.31;26.50;26.40;26.02;24.11;17.82;0.80
82002;SPS30;71522;50.870;3.524;2023-07-30T01:51:32;7.40;6.66;5.12;3.12;25.02;24.94;24.57;22.74;16.77;0.80
82002;SPS30;71522;50.870;3.524;2023-07-30T01:53:58;7.66;6.86;5.23;3.12;25.00;24.91;24.52;22.58;16.45;0.82
82002;SPS30;71522;50.870;3.524;2023-07-30T01:56:24;7.56;6.78;5.19;3.12;25.02;24.92;24.54;22.65;16.58;0.81
82002;SPS30;71522;50.870;3.524;2023-07-30T01:58:50;8.39;7.52;5.73;3.41;27.33;27.22;26.80;24.67;17.95;0.82
82002;SPS30;71522;50.870;3.524;2023-07-30T02:01:22;7.85;7.04;5.38;3.21;25.76;25.67;25.27;23.29;16.99;0.81
82002;SPS30;71522;50.870;3.524;2023-07-30T02:03:51;7.48;6.74;5.22;3.24;25.93;25.84;25.48;23.67;17.60;0.78
82002;SPS30;71522;50.870;3.524;2023-07-30T02:06:17;8.15;7.29;5.51;3.22;25.82;25.72;25.29;23.18;16.70;0.83
82002;SPS30;71522;50.870;3.524;2023-07-30T02:08:42;8.59;7.69;5.84;3.45;27.66;27.55;27.11;24.91;18.05;0.81
82002;SPS30;71522;50.870;3.524;2023-07-30T02:11:08;8.54;7.66;5.84;3.48;27.93;27.82;27.39;25.23;18.39;0.80
82002;SPS30;71522;50.870;3.524;2023-07-30T02:13:34;8.25;7.41;5.68;3.43;27.51;27.41;27.00;24.95;18.31;0.79
82002;SPS30;71522;50.870;3.524;2023-07-30T02:16:00;7.74;6.95;5.35;3.25;26.05;25.96;25.57;23.66;17.42;0.79
82002;SPS30;71522;50.870;3.524;2023-07-30T02:18:26;8.33;7.44;5.63;3.29;26.38;26.28;25.85;23.70;17.07;0.81
82002;SPS30;71522;50.870;3.524;2023-07-30T02:20:52;7.64;6.86;5.27;3.19;25.59;25.50;25.12;23.22;17.07;0.80
82002;SPS30;71522;50.870;3.524;2023-07-30T02:23:18;7.57;6.80;5.22;3.16;25.34;25.24;24.87;22.99;16.89;0.80
82002;SPS30;71522;50.870;3.524;2023-07-30T02:25:44;8.74;7.82;5.94;3.50;28.06;27.95;27.51;25.27;18.29;0.81
82002;SPS30;71522;50.870;3.524;2023-07-30T02:28:10;7.70;6.92;5.31;3.21;25.76;25.67;25.28;23.36;17.16;0.80
82002;SPS30;71522;50.870;3.524;2023-07-30T02:30:36;7.64;6.89;5.34;3.32;26.59;26.50;26.13;24.28;18.08;0.78
82002;SPS30;71522;50.870;3.524;2023-07-30T02:33:03;7.56;6.78;5.17;3.09;24.76;24.67;24.29;22.37;16.32;0.81
82002;SPS30;71522;50.870;3.524;2023-07-30T02:35:29;8.80;7.87;5.95;3.48;27.91;27.80;27.35;25.07;18.07;0.82
82002;SPS30;71522;50.870;3.524;2023-07-30T02:37:54;8.76;7.82;5.89;3.40;27.29;27.18;26.72;24.42;17.48;0.82
82002;SPS30;71522;50.870;3.524;2023-07-30T02:40:20;8.85;7.90;5.93;3.40;27.27;27.16;26.69;24.36;17.36;0.83
82002;SPS30;71522;50.870;3.524;2023-07-30T02:42:46;8.16;7.29;5.49;3.18;25.52;25.42;24.99;22.86;16.39;0.83
82002;SPS30;71522;50.870;3.524;2023-07-30T02:45:12;7.54;6.76;5.17;3.10;24.87;24.78;24.40;22.50;16.46;0.80
82002;SPS30;71522;50.870;3.524;2023-07-30T02:47:41;8.33;7.44;5.61;3.25;26.05;25.94;25.51;23.33;16.73;0.83
82002;SPS30;71522;50.870;3.524;2023-07-30T02:50:08;9.09;8.09;6.04;3.42;27.43;27.31;26.82;24.40;17.24;0.84
82002;SPS30;71522;50.870;3.524;2023-07-30T02:52:35;8.83;7.86;5.87;3.31;26.55;26.43;25.96;23.59;16.64;0.86
82002;SPS30;71522;50.870;3.524;2023-07-30T02:55:01;8.45;7.54;5.68;3.28;26.32;26.21;25.77;23.56;16.87;0.84
82002;SPS30;71522;50.870;3.524;2023-07-30T02:57:27;8.17;7.31;5.55;3.27;26.19;26.09;25.67;23.57;17.06;0.83
82002;SPS30;71522;50.870;3.524;2023-07-30T02:59:53;8.40;7.51;5.70;3.36;26.93;26.83;26.39;24.24;17.54;0.82
82002;SPS30;71522;50.870;3.524;2023-07-30T03:02:19;8.72;7.76;5.79;3.27;26.20;26.09;25.62;23.29;16.42;0.84
82002;SPS30;71522;50.870;3.524;2023-07-30T03:04:45;8.20;7.33;5.55;3.25;26.08;25.98;25.56;23.45;16.92;0.81
82002;SPS30;71522;50.870;3.524;2023-07-30T03:07:11;8.47;7.58;5.74;3.37;27.01;26.90;26.46;24.28;17.53;0.82
82002;SPS30;71522;50.870;3.524;2023-07-30T03:09:37;8.72;7.81;5.92;3.49;27.97;27.86;27.41;25.18;18.22;0.81
82002;SPS30;71522;50.870;3.524;2023-07-30T03:12:03;8.18;7.37;5.71;3.53;28.29;28.19;27.79;25.81;19.17;0.78
82002;SPS30;71522;50.870;3.524;2023-07-30T03:14:29;7.77;6.97;5.32;3.19;25.54;25.45;25.05;23.10;16.87;0.82
82002;SPS30;71522;50.870;3.524;2023-07-30T03:16:56;9.31;8.32;6.29;3.67;29.43;29.31;28.83;26.42;19.01;0.83
82002;SPS30;71522;50.870;3.524;2023-07-30T03:19:22;8.70;7.76;5.85;3.39;27.17;27.06;26.61;24.34;17.44;0.86
82002;SPS30;71522;50.870;3.524;2023-07-30T03:21:48;9.23;8.22;6.15;3.49;27.96;27.85;27.35;24.90;17.62;0.87
82002;SPS30;71522;50.870;3.524;2023-07-30T03:24:15;8.05;7.21;5.48;3.24;26.01;25.91;25.49;23.44;17.01;0.83
82002;SPS30;71522;50.870;3.524;2023-07-30T03:26:41;8.81;7.87;5.95;3.47;27.81;27.70;27.24;24.96;17.96;0.85
82002;SPS30;71522;50.870;3.524;2023-07-30T03:29:06;8.52;7.62;5.78;3.40;27.29;27.19;26.75;24.56;17.77;0.82
82002;SPS30;71522;50.870;3.524;2023-07-30T03:31:32;8.33;7.49;5.75;3.49;28.00;27.90;27.49;25.42;18.71;0.80
82002;SPS30;71522;50.870;3.524;2023-07-30T03:33:58;8.46;7.59;5.78;3.45;27.65;27.55;27.12;24.98;18.20;0.81
82002;SPS30;71522;50.870;3.524;2023-07-30T03:36:25;8.76;7.82;5.89;3.41;27.35;27.24;26.78;24.49;17.54;0.83
82002;SPS30;71522;50.870;3.524;2023-07-30T03:38:50;9.27;8.26;6.17;3.50;28.04;27.92;27.43;24.95;17.65;0.85
82002;SPS30;71522;50.870;3.524;2023-07-30T03:41:16;9.56;8.53;6.43;3.72;29.82;29.70;29.20;26.70;19.12;0.83
82002;SPS30;71522;50.870;3.524;2023-07-30T03:43:41;9.11;8.17;6.25;3.74;30.01;29.90;29.44;27.15;19.84;0.80
82002;SPS30;71522;50.870;3.524;2023-07-30T03:46:07;7.79;7.04;5.49;3.46;27.71;27.62;27.25;25.40;19.04;0.76
82002;SPS30;71522;50.870;3.524;2023-07-30T03:48:33;7.88;7.14;5.62;3.61;28.94;28.85;28.49;26.67;20.19;0.76
82002;SPS30;71522;50.870;3.524;2023-07-30T03:50:58;8.36;7.53;5.82;3.59;28.76;28.66;28.26;26.22;19.45;0.78
82002;SPS30;71522;50.870;3.524;2023-07-30T03:53:24;8.44;7.59;5.84;3.55;28.48;28.38;27.96;25.87;19.07;0.79
82002;SPS30;71522;50.870;3.524;2023-07-30T03:55:50;7.47;6.73;5.23;3.26;26.13;26.05;25.69;23.89;17.82;0.79
82002;SPS30;71522;50.870;3.524;2023-07-30T03:58:17;7.60;6.84;5.28;3.24;25.95;25.86;25.49;23.63;17.48;0.79
82002;SPS30;71522;50.870;3.524;2023-07-30T04:00:43;7.95;7.13;5.44;3.26;26.12;26.03;25.62;23.62;17.25;0.80
82002;SPS30;71522;50.870;3.524;2023-07-30T04:03:08;8.95;8.00;6.06;3.55;28.43;28.32;27.85;25.54;18.42;0.82
82002;SPS30;71522;50.870;3.524;2023-07-30T04:05:34;9.03;8.07;6.11;3.57;28.61;28.50;28.03;25.70;18.52;0.83
82002;SPS30;71522;50.870;3.524;2023-07-30T04:08:14;9.29;8.26;6.13;3.41;27.33;27.20;26.70;24.18;16.90;0.96
82002;SPS30;71522;50.870;3.524;2023-07-30T04:10:41;8.57;7.68;5.86;3.50;28.04;27.94;27.50;25.34;18.47;0.86
82002;SPS30;71522;50.870;3.524;2023-07-30T04:13:07;9.14;8.15;6.11;3.50;28.04;27.92;27.44;25.02;17.80;0.86
82002;SPS30;71522;50.870;3.524;2023-07-30T04:15:33;8.69;7.76;5.85;3.38;27.13;27.02;26.57;24.30;17.41;0.82
82002;SPS30;71522;50.870;3.524;2023-07-30T04:17:59;8.92;7.96;5.98;3.44;27.61;27.50;27.03;24.69;17.63;0.83
82002;SPS30;71522;50.870;3.524;2023-07-30T04:20:26;8.68;7.79;5.97;3.60;28.85;28.75;28.31;26.14;19.16;0.78
82002;SPS30;71522;50.870;3.524;2023-07-30T04:22:52;8.03;7.21;5.53;3.34;26.78;26.68;26.28;24.28;17.82;0.78
82002;SPS30;71522;50.870;3.524;2023-07-30T04:25:18;7.79;7.02;5.45;3.38;27.07;26.98;26.60;24.72;18.39;0.79
82002;SPS30;71522;50.870;3.524;2023-07-30T04:27:44;9.00;8.12;6.32;3.96;31.73;31.63;31.20;29.05;21.72;0.79
82002;SPS30;71522;50.870;3.524;2023-07-30T04:30:14;7.95;7.32;6.03;4.25;34.01;33.93;33.62;32.05;25.26;0.69
82002;SPS30;71522;50.870;3.524;2023-07-30T04:32:41;7.17;6.64;5.55;4.03;32.28;32.21;31.95;30.63;24.42;0.69
82002;SPS30;71522;50.870;3.524;2023-07-30T04:35:07;6.67;6.16;5.11;3.65;29.22;29.16;28.91;27.63;21.89;0.71
82002;SPS30;71522;50.870;3.524;2023-07-30T04:37:32;6.89;6.30;5.10;3.47;27.79;27.72;27.43;25.98;20.19;0.72
82002;SPS30;71522;50.870;3.524;2023-07-30T04:39:58;7.01;6.39;5.11;3.40;27.22;27.15;26.84;25.31;19.47;0.74
82002;SPS30;71522;50.870;3.524;2023-07-30T04:42:24;6.62;6.03;4.82;3.20;25.63;25.56;25.27;23.82;18.31;0.74
82002;SPS30;71522;50.870;3.524;2023-07-30T04:44:52;6.46;5.87;4.66;3.05;24.41;24.34;24.05;22.60;17.25;0.74
82002;SPS30;71522;50.870;3.524;2023-07-30T04:47:21;7.09;6.40;5.00;3.16;25.30;25.22;24.89;23.21;17.42;0.77
82002;SPS30;71522;50.870;3.524;2023-07-30T04:49:47;7.37;6.62;5.08;3.08;24.67;24.58;24.22;22.38;16.45;0.82
82002;SPS30;71522;50.870;3.524;2023-07-30T04:52:12;7.62;6.83;5.21;3.11;24.96;24.86;24.48;22.55;16.44;0.83
82002;SPS30;71522;50.870;3.524;2023-07-30T04:54:38;7.55;6.75;5.12;3.02;24.18;24.08;23.69;21.76;15.74;0.83
82002;SPS30;71522;50.870;3.524;2023-07-30T04:57:04;7.45;6.67;5.07;3.00;24.05;23.96;23.58;21.68;15.73;0.83
82002;SPS30;71522;50.870;3.524;2023-07-30T04:59:30;7.01;6.30;4.84;2.94;23.58;23.50;23.15;21.42;15.77;0.81
82002;SPS30;71522;50.870;3.524;2023-07-30T05:01:59;7.98;7.13;5.38;3.12;25.06;24.96;24.54;22.46;16.12;0.85
82002;SPS30;71522;50.870;3.524;2023-07-30T05:04:25;8.25;7.35;5.51;3.15;25.26;25.15;24.71;22.53;16.02;0.86
82002;SPS30;71522;50.870;3.524;2023-07-30T05:06:51;7.20;6.46;4.92;2.93;23.51;23.42;23.05;21.23;15.46;0.83
82002;SPS30;71522;50.870;3.524;2023-07-30T05:09:16;7.60;6.82;5.22;3.15;25.23;25.14;24.75;22.85;16.75;0.80
82002;SPS30;71522;50.870;3.524;2023-07-30T05:11:42;8.12;7.26;5.49;3.20;25.68;25.58;25.15;23.05;16.60;0.84
82002;SPS30;71522;50.870;3.524;2023-07-30T05:14:08;8.62;7.68;5.75;3.28;26.31;26.20;25.74;23.46;16.66;0.85
82002;SPS30;71522;50.870;3.524;2023-07-30T05:16:33;8.31;7.44;5.66;3.35;26.89;26.79;26.36;24.24;17.60;0.83
82002;SPS30;71522;50.870;3.524;2023-07-30T05:19:02;7.09;6.36;4.86;2.92;23.40;23.32;22.96;21.18;15.49;0.82
82002;SPS30;71522;50.870;3.524;2023-07-30T05:21:28;6.91;6.23;4.83;3.00;24.00;23.92;23.59;21.92;16.31;0.80
82002;SPS30;71522;50.870;3.524;2023-07-30T05:23:54;7.67;6.95;5.45;3.47;27.82;27.73;27.37;25.58;19.29;0.78
82002;SPS30;71522;50.870;3.524;2023-07-30T05:26:19;7.14;6.43;4.96;3.05;24.40;24.32;23.97;22.22;16.45;0.79
82002;SPS30;71522;50.870;3.524;2023-07-30T05:28:45;7.65;6.82;5.13;2.96;23.72;23.62;23.22;21.22;15.16;0.83
82002;SPS30;71522;50.870;3.524;2023-07-30T05:31:11;7.68;6.85;5.14;2.94;23.59;23.50;23.09;21.06;14.99;0.83
82002;SPS30;71522;50.870;3.524;2023-07-30T05:33:37;7.87;7.03;5.30;3.07;24.65;24.55;24.14;22.09;15.84;0.83
82002;SPS30;71522;50.870;3.524;2023-07-30T05:36:03;8.40;7.48;5.60;3.19;25.61;25.50;25.05;22.83;16.20;0.86
82002;SPS30;71522;50.870;3.524;2023-07-30T05:38:31;8.12;7.27;5.51;3.23;25.91;25.81;25.39;23.30;16.83;0.82
82002;SPS30;71522;50.870;3.524;2023-07-30T05:40:56;7.15;6.44;4.99;3.08;24.71;24.63;24.28;22.55;16.75;0.79
82002;SPS30;71522;50.870;3.524;2023-07-30T05:43:22;7.70;6.94;5.37;3.32;26.64;26.55;26.17;24.31;18.06;0.80
82002;SPS30;71522;50.870;3.524;2023-07-30T05:45:48;7.38;6.63;5.10;3.10;24.86;24.77;24.40;22.58;16.63;0.81
82002;SPS30;71522;50.870;3.524;2023-07-30T05:48:14;7.66;6.87;5.25;3.14;25.20;25.11;24.72;22.79;16.65;0.81
82002;SPS30;71522;50.870;3.524;2023-07-30T05:50:40;8.05;7.18;5.39;3.08;24.72;24.61;24.19;22.06;15.70;0.84
82002;SPS30;71522;50.870;3.524;2023-07-30T05:53:05;8.22;7.35;5.57;3.27;26.19;26.09;25.66;23.55;17.00;0.83
82002;SPS30;71522;50.870;3.524;2023-07-30T05:55:31;8.71;7.77;5.83;3.34;26.75;26.64;26.18;23.87;16.99;0.86
82002;SPS30;71522;50.870;3.524;2023-07-30T05:57:57;8.28;7.41;5.64;3.33;26.73;26.63;26.20;24.09;17.48;0.82
82002;SPS30;71522;50.870;3.524;2023-07-30T06:00:23;8.27;7.38;5.54;3.19;25.54;25.44;25.00;22.82;16.28;0.84
82002;SPS30;71522;50.870;3.524;2023-07-30T06:02:49;8.29;7.42;5.63;3.32;26.61;26.51;26.08;23.96;17.34;0.83
82002;SPS30;71522;50.870;3.524;2023-07-30T06:05:15;8.04;7.23;5.56;3.38;27.12;27.02;26.62;24.63;18.15;0.81
82002;SPS30;71522;50.870;3.524;2023-07-30T06:07:41;7.62;6.87;5.34;3.33;26.70;26.61;26.25;24.42;18.23;0.79
82002;SPS30;71522;50.870;3.524;2023-07-30T06:10:07;8.05;7.23;5.54;3.34;26.80;26.70;26.30;24.29;17.82;0.82
82002;SPS30;71522;50.870;3.524;2023-07-30T06:12:33;7.91;7.10;5.42;3.25;26.02;25.92;25.52;23.53;17.18;0.83
82002;SPS30;71522;50.870;3.524;2023-07-30T06:14:59;9.05;8.08;6.10;3.53;28.33;28.21;27.74;25.38;18.20;0.85
82002;SPS30;71522;50.870;3.524;2023-07-30T06:17:25;8.00;7.17;5.48;3.28;26.28;26.18;25.78;23.76;17.35;0.81
82002;SPS30;71522;50.870;3.524;2023-07-30T06:19:50;8.38;7.51;5.73;3.42;27.40;27.30;26.87;24.75;18.04;0.83
82002;SPS30;71522;50.870;3.524;2023-07-30T06:22:16;7.63;6.85;5.23;3.13;25.12;25.03;24.64;22.72;16.60;0.82
82002;SPS30;71522;50.870;3.524;2023-07-30T06:24:41;8.48;7.59;5.77;3.41;27.33;27.22;26.79;24.62;17.85;0.82
82002;SPS30;71522;50.870;3.524;2023-07-30T06:27:07;8.47;7.56;5.69;3.29;26.37;26.26;25.82;23.60;16.89;0.84
82002;SPS30;71522;50.870;3.524;2023-07-30T06:29:35;7.88;7.04;5.33;3.13;25.05;24.96;24.55;22.52;16.25;0.85
82002;SPS30;71522;50.870;3.524;2023-07-30T06:32:01;8.73;7.81;5.93;3.50;28.04;27.93;27.48;25.24;18.28;0.85
82002;SPS30;71522;50.870;3.524;2023-07-30T06:34:27;8.21;7.33;5.51;3.17;25.45;25.35;24.91;22.76;16.25;0.86
82002;SPS30;71522;50.870;3.524;2023-07-30T06:36:53;8.06;7.20;5.45;3.18;25.48;25.38;24.96;22.88;16.47;0.84
82002;SPS30;71522;50.870;3.524;2023-07-30T06:39:18;8.36;7.45;5.59;3.19;25.60;25.50;25.05;22.84;16.24;0.85
82002;SPS30;71522;50.870;3.524;2023-07-30T06:41:44;8.54;7.64;5.79;3.41;27.31;27.20;26.76;24.57;17.76;0.83
82002;SPS30;71522;50.870;3.524;2023-07-30T06:44:11;8.31;7.48;5.76;3.52;28.18;28.08;27.67;25.62;18.91;0.81
82002;SPS30;71522;50.870;3.524;2023-07-30T06:46:37;8.34;7.51;5.82;3.60;28.84;28.74;28.33;26.31;19.55;0.80
82002;SPS30;71522;50.870;3.524;2023-07-30T06:49:04;8.05;7.23;5.54;3.34;26.76;26.66;26.26;24.25;17.78;0.81
82002;SPS30;71522;50.870;3.524;2023-07-30T06:51:31;7.25;6.53;5.04;3.09;24.78;24.70;24.34;22.56;16.70;0.80
82002;SPS30;71522;50.870;3.524;2023-07-30T06:53:57;8.09;7.27;5.58;3.39;27.16;27.07;26.66;24.66;18.14;0.78
82002;SPS30;71522;50.870;3.524;2023-07-30T06:56:23;8.17;7.33;5.60;3.36;26.93;26.83;26.42;24.36;17.81;0.80
82002;SPS30;71522;50.870;3.524;2023-07-30T06:58:48;7.07;6.38;4.98;3.13;25.09;25.01;24.67;22.99;17.23;0.78
82002;SPS30;71522;50.870;3.524;2023-07-30T07:01:14;7.75;6.96;5.35;3.25;26.04;25.94;25.56;23.64;17.39;0.82
82002;SPS30;71522;50.870;3.524;2023-07-30T07:03:40;8.47;7.59;5.80;3.47;27.80;27.70;27.27;25.14;18.35;0.85
82002;SPS30;71522;50.870;3.524;2023-07-30T07:06:06;8.04;7.21;5.51;3.30;26.42;26.32;25.92;23.89;17.45;0.85
82002;SPS30;71522;50.870;3.524;2023-07-30T07:08:32;7.45;6.70;5.15;3.13;25.06;24.97;24.60;22.76;16.75;0.83
82002;SPS30;71522;50.870;3.524;2023-07-30T07:10:57;9.04;8.07;6.07;3.49;27.97;27.86;27.38;25.00;17.84;0.85
82002;SPS30;71522;50.870;3.524;2023-07-30T07:13:23;8.01;7.18;5.48;3.27;26.21;26.12;25.71;23.69;17.27;0.81
82002;SPS30;71522;50.870;3.524;2023-07-30T07:15:49;7.85;7.05;5.40;3.25;26.04;25.94;25.55;23.58;17.28;0.82
82002;SPS30;71522;50.870;3.524;2023-07-30T07:18:16;8.34;7.45;5.63;3.28;26.28;26.17;25.74;23.57;16.95;0.83
82002;SPS30;71522;50.870;3.524;2023-07-30T07:20:41;8.22;7.36;5.58;3.29;26.37;26.27;25.85;23.74;17.18;0.82
82002;SPS30;71522;50.870;3.524;2023-07-30T07:23:07;7.75;6.93;5.27;3.12;25.00;24.90;24.50;22.53;16.34;0.83
82002;SPS30;71522;50.870;3.524;2023-07-30T07:25:33;7.79;7.00;5.38;3.26;26.16;26.07;25.68;23.75;17.47;0.81
82002;SPS30;71522;50.870;3.524;2023-07-30T07:28:00;7.46;6.68;5.08;3.01;24.12;24.03;23.65;21.75;15.79;0.82
82002;SPS30;71522;50.870;3.524;2023-07-30T07:30:25;8.41;7.52;5.68;3.31;26.51;26.41;25.97;23.78;17.10;0.86
82002;SPS30;71522;50.870;3.524;2023-07-30T07:32:52;8.16;7.30;5.55;3.29;26.37;26.27;25.85;23.77;17.26;0.84
82002;SPS30;71522;50.870;3.524;2023-07-30T07:35:19;7.44;6.70;5.18;3.20;25.65;25.56;25.20;23.39;17.37;0.81
82002;SPS30;71522;50.870;3.524;2023-07-30T07:37:46;7.12;6.39;4.89;2.94;23.56;23.48;23.12;21.34;15.62;0.81
82002;SPS30;71522;50.870;3.524;2023-07-30T07:40:12;7.36;6.58;4.97;2.90;23.25;23.16;22.78;20.87;15.02;0.83
82002;SPS30;71522;50.870;3.524;2023-07-30T07:42:41;7.53;6.75;5.14;3.06;24.51;24.42;24.04;22.13;16.10;0.84
82002;SPS30;71522;50.870;3.524;2023-07-30T07:45:07;7.79;7.00;5.37;3.25;26.03;25.94;25.55;23.61;17.34;0.82
82002;SPS30;71522;50.870;3.524;2023-07-30T07:47:33;7.33;6.61;5.14;3.20;25.65;25.57;25.21;23.45;17.49;0.81
82002;SPS30;71522;50.870;3.524;2023-07-30T07:49:59;7.10;6.38;4.89;2.96;23.72;23.63;23.28;21.51;15.79;0.82
82002;SPS30;71522;50.870;3.524;2023-07-30T07:52:28;7.67;6.89;5.28;3.18;25.50;25.41;25.02;23.11;16.94;0.81
82002;SPS30;71522;50.870;3.524;2023-07-30T07:54:57;7.37;6.63;5.11;3.14;25.12;25.04;24.67;22.87;16.91;0.82
82002;SPS30;71522;50.870;3.524;2023-07-30T07:57:22;6.28;5.69;4.47;2.86;22.91;22.84;22.54;21.08;15.93;0.79
82002;SPS30;71522;50.870;3.524;2023-07-30T07:59:51;6.51;5.89;4.63;2.96;23.68;23.60;23.30;21.79;16.45;0.76
82002;SPS30;71522;50.870;3.524;2023-07-30T08:02:17;6.69;6.09;4.86;3.21;25.71;25.64;25.35;23.87;18.31;0.74
82002;SPS30;71522;50.870;3.524;2023-07-30T08:04:44;6.40;5.85;4.70;3.17;25.35;25.28;25.01;23.63;18.27;0.71
82002;SPS30;71522;50.870;3.524;2023-07-30T08:07:10;6.55;5.97;4.79;3.21;25.67;25.60;25.31;23.89;18.43;0.72
82002;SPS30;71522;50.870;3.524;2023-07-30T08:09:35;6.86;6.27;5.06;3.42;27.39;27.31;27.02;25.56;19.80;0.71
82002;SPS30;71522;50.870;3.524;2023-07-30T08:12:01;7.27;6.62;5.28;3.49;27.93;27.85;27.53;25.92;19.88;0.76
82002;SPS30;71522;50.870;3.524;2023-07-30T08:14:27;6.53;5.93;4.68;3.02;24.21;24.13;23.83;22.34;16.95;0.79
82002;SPS30;71522;50.870;3.524;2023-07-30T08:16:56;6.61;5.99;4.72;3.05;24.40;24.33;24.03;22.51;17.07;0.78
82002;SPS30;71522;50.870;3.524;2023-07-30T08:19:24;6.64;6.04;4.81;3.16;25.29;25.21;24.92;23.44;17.93;0.77
82002;SPS30;71522;50.870;3.524;2023-07-30T08:21:51;6.03;5.53;4.49;3.08;24.63;24.57;24.32;23.06;17.97;0.73
82002;SPS30;71522;50.870;3.524;2023-07-30T08:24:17;5.98;5.44;4.34;2.87;22.96;22.89;22.63;21.31;16.34;0.76
82002;SPS30;71522;50.870;3.524;2023-07-30T08:26:42;6.15;5.59;4.43;2.89;23.18;23.11;22.84;21.45;16.37;0.75
82002;SPS30;71522;50.870;3.524;2023-07-30T08:29:09;5.67;5.21;4.26;2.96;23.71;23.65;23.43;22.28;17.46;0.70
82002;SPS30;71522;50.870;3.524;2023-07-30T08:31:38;5.23;4.79;3.88;2.65;21.19;21.13;20.91;19.81;15.41;0.72
82002;SPS30;71522;50.870;3.524;2023-07-30T08:34:03;6.01;5.44;4.25;2.69;21.58;21.51;21.23;19.81;14.90;0.79
82002;SPS30;71522;50.870;3.524;2023-07-30T08:36:29;5.27;4.79;3.79;2.47;19.81;19.76;19.52;18.33;13.97;0.74
82002;SPS30;71522;50.870;3.524;2023-07-30T08:38:55;5.59;5.11;4.11;2.76;22.10;22.04;21.80;20.59;15.91;0.73
82002;SPS30;71522;50.870;3.524;2023-07-30T08:41:21;5.10;4.68;3.82;2.65;21.22;21.17;20.96;19.93;15.60;0.69
82002;SPS30;71522;50.870;3.524;2023-07-30T08:43:46;5.06;4.65;3.80;2.65;21.21;21.16;20.96;19.94;15.64;0.70
82002;SPS30;71522;50.870;3.524;2023-07-30T08:46:16;5.65;5.18;4.23;2.93;23.48;23.43;23.20;22.05;17.26;0.71
82002;SPS30;71522;50.870;3.524;2023-07-30T08:48:42;5.82;5.32;4.28;2.89;23.15;23.09;22.84;21.60;16.72;0.74
82002;SPS30;71522;50.870;3.524;2023-07-30T08:51:09;5.27;4.83;3.95;2.74;21.91;21.85;21.64;20.57;16.10;0.71
82002;SPS30;71522;50.870;3.524;2023-07-30T08:53:41;4.65;4.30;3.57;2.57;20.53;20.49;20.31;19.43;15.42;0.69
82002;SPS30;71522;50.870;3.524;2023-07-30T08:56:07;4.95;4.56;3.76;2.66;21.31;21.26;21.07;20.10;15.87;0.71
82002;SPS30;71522;50.870;3.524;2023-07-30T08:58:34;4.29;3.97;3.31;2.39;19.14;19.10;18.94;18.14;14.43;0.70
82002;SPS30;71522;50.870;3.524;2023-07-30T09:01:03;4.52;4.14;3.37;2.31;18.53;18.48;18.30;17.36;13.55;0.72
82002;SPS30;71522;50.870;3.524;2023-07-30T09:03:37;4.06;3.71;3.00;2.04;16.34;16.30;16.13;15.27;11.86;0.71
82002;SPS30;71522;50.870;3.524;2023-07-30T09:06:05;4.53;4.16;3.41;2.38;19.04;18.99;18.81;17.90;14.05;0.70
82002;SPS30;71522;50.870;3.524;2023-07-30T09:08:30;4.41;4.04;3.28;2.24;17.95;17.90;17.72;16.80;13.08;0.71